sensor_id;sensor_type;location;lat;lon;timestamp;temperature;humidity
44671;DHT22;48397;53.016;-2.260;2022-09-01T00:00:06;13.90;99.90
44671;DHT22;48397;53.016;-2.260;2022-09-01T00:02:34;13.90;99.90
44671;DHT22;48397;53.016;-2.260;2022-09-01T00:05:03;13.90;99.90
44671;DHT22;48397;53.016;-2.260;2022-09-01T00:07:32;13.90;99.90
44671;DHT22;48397;53.016;-2.260;2022-09-01T00:10:05;13.90;99.90
44671;DHT22;48397;53.016;-2.260;2022-09-01T00:12:35;13.80;99.90
44671;DHT22;48397;53.016;-2.260;2022-09-01T00:15:05;14.00;99.90
44671;DHT22;48397;53.016;-2.260;2022-09-01T00:17:33;14.00;99.90
44671;DHT22;48397;53.016;-2.260;2022-09-01T00:20:01;14.00;99.90
44671;DHT22;48397;53.016;-2.260;2022-09-01T00:22:29;14.10;99.90
44671;DHT22;48397;53.016;-2.260;2022-09-01T00:24:57;14.00;99.90
44671;DHT22;48397;53.016;-2.260;2022-09-01T00:27:25;14.10;99.90
44671;DHT22;48397;53.016;-2.260;2022-09-01T00:29:58;14.10;99.90
44671;DHT22;48397;53.016;-2.260;2022-09-01T00:32:27;14.10;99.90
44671;DHT22;48397;53.016;-2.260;2022-09-01T00:34:55;14.00;99.90
44671;DHT22;48397;53.016;-2.260;2022-09-01T00:37:23;14.00;99.90
44671;DHT22;48397;53.016;-2.260;2022-09-01T00:39:51;14.00;99.90
44671;DHT22;48397;53.016;-2.260;2022-09-01T00:42:18;14.00;99.90
44671;DHT22;48397;53.016;-2.260;2022-09-01T00:44:46;14.00;99.90
44671;DHT22;48397;53.016;-2.260;2022-09-01T00:47:14;14.00;99.90
44671;DHT22;48397;53.016;-2.260;2022-09-01T00:49:47;13.90;99.90
44671;DHT22;48397;53.016;-2.260;2022-09-01T00:52:26;10.30;99.90
44671;DHT22;48397;53.016;-2.260;2022-09-01T00:54:58;11.30;99.90
44671;DHT22;48397;53.016;-2.260;2022-09-01T00:57:28;13.80;99.90
44671;DHT22;48397;53.016;-2.260;2022-09-01T01:00:00;13.80;99.90
44671;DHT22;48397;53.016;-2.260;2022-09-01T01:02:30;13.70;99.90
44671;DHT22;48397;53.016;-2.260;2022-09-01T01:04:58;13.70;99.90
44671;DHT22;48397;53.016;-2.260;2022-09-01T01:07:27;13.60;99.90
44671;DHT22;48397;53.016;-2.260;2022-09-01T01:09:56;13.50;99.90
44671;DHT22;48397;53.016;-2.260;2022-09-01T01:12:24;13.50;99.90
44671;DHT22;48397;53.016;-2.260;2022-09-01T01:17:23;13.50;99.90
44671;DHT22;48397;53.016;-2.260;2022-09-01T01:19:55;13.50;99.90
44671;DHT22;48397;53.016;-2.260;2022-09-01T01:23:22;13.50;99.90
44671;DHT22;48397;53.016;-2.260;2022-09-01T01:25:53;13.40;99.90
44671;DHT22;48397;53.016;-2.260;2022-09-01T01:28:28;13.30;99.90
44671;DHT22;48397;53.016;-2.260;2022-09-01T01:33:35;13.30;99.90
44671;DHT22;48397;53.016;-2.260;2022-09-01T01:36:24;13.20;99.90
44671;DHT22;48397;53.016;-2.260;2022-09-01T01:39:08;13.30;99.90
44671;DHT22;48397;53.016;-2.260;2022-09-01T01:41:37;13.30;99.90
44671;DHT22;48397;53.016;-2.260;2022-09-01T01:44:11;13.30;99.90
44671;DHT22;48397;53.016;-2.260;2022-09-01T01:46:46;13.30;99.90
44671;DHT22;48397;53.016;-2.260;2022-09-01T01:49:15;13.30;99.90
44671;DHT22;48397;53.016;-2.260;2022-09-01T01:51:50;13.30;99.90
44671;DHT22;48397;53.016;-2.260;2022-09-01T01:54:27;13.30;99.90
44671;DHT22;48397;53.016;-2.260;2022-09-01T01:56:59;13.30;99.90
44671;DHT22;48397;53.016;-2.260;2022-09-01T01:59:31;13.20;99.90
44671;DHT22;48397;53.016;-2.260;2022-09-01T02:02:00;13.20;99.90
44671;DHT22;48397;53.016;-2.260;2022-09-01T02:04:31;13.20;99.90
44671;DHT22;48397;53.016;-2.260;2022-09-01T02:07:11;13.20;99.90
44671;DHT22;48397;53.016;-2.260;2022-09-01T02:09:40;13.20;99.90
44671;DHT22;48397;53.016;-2.260;2022-09-01T02:12:15;13.10;99.90
44671;DHT22;48397;53.016;-2.260;2022-09-01T02:14:46;13.10;99.90
44671;DHT22;48397;53.016;-2.260;2022-09-01T02:17:15;13.10;99.90
44671;DHT22;48397;53.016;-2.260;2022-09-01T02:19:44;13.10;99.90
44671;DHT22;48397;53.016;-2.260;2022-09-01T02:22:13;13.10;99.90
44671;DHT22;48397;53.016;-2.260;2022-09-01T02:24:41;13.10;99.90
44671;DHT22;48397;53.016;-2.260;2022-09-01T02:27:16;13.00;99.90
44671;DHT22;48397;53.016;-2.260;2022-09-01T02:29:54;13.00;99.90
44671;DHT22;48397;53.016;-2.260;2022-09-01T02:32:22;13.00;99.90
44671;DHT22;48397;53.016;-2.260;2022-09-01T02:34:50;12.90;99.90
44671;DHT22;48397;53.016;-2.260;2022-09-01T02:37:21;12.90;99.90
44671;DHT22;48397;53.016;-2.260;2022-09-01T02:39:52;12.90;99.90
44671;DHT22;48397;53.016;-2.260;2022-09-01T02:42:23;12.90;99.90
44671;DHT22;48397;53.016;-2.260;2022-09-01T02:44:55;12.90;99.90
44671;DHT22;48397;53.016;-2.260;2022-09-01T02:47:24;12.90;99.90
44671;DHT22;48397;53.016;-2.260;2022-09-01T02:49:55;12.90;99.90
44671;DHT22;48397;53.016;-2.260;2022-09-01T02:52:25;12.90;99.90
44671;DHT22;48397;53.016;-2.260;2022-09-01T02:54:53;12.90;99.90
44671;DHT22;48397;53.016;-2.260;2022-09-01T02:57:22;12.90;99.90
44671;DHT22;48397;53.016;-2.260;2022-09-01T02:59:51;12.90;99.90
44671;DHT22;48397;53.016;-2.260;2022-09-01T03:02:22;12.90;99.90
44671;DHT22;48397;53.016;-2.260;2022-09-01T03:07:24;12.90;99.90
44671;DHT22;48397;53.016;-2.260;2022-09-01T03:09:54;12.90;99.90
44671;DHT22;48397;53.016;-2.260;2022-09-01T03:12:22;12.90;99.90
44671;DHT22;48397;53.016;-2.260;2022-09-01T03:14:51;12.90;99.90
44671;DHT22;48397;53.016;-2.260;2022-09-01T03:17:20;12.90;99.90
44671;DHT22;48397;53.016;-2.260;2022-09-01T03:19:48;13.00;99.90
44671;DHT22;48397;53.016;-2.260;2022-09-01T03:24:47;12.90;99.90
44671;DHT22;48397;53.016;-2.260;2022-09-01T03:27:16;13.00;99.90
44671;DHT22;48397;53.016;-2.260;2022-09-01T03:29:44;13.00;99.90
44671;DHT22;48397;53.016;-2.260;2022-09-01T03:32:12;13.00;99.90
44671;DHT22;48397;53.016;-2.260;2022-09-01T03:34:41;13.10;99.90
44671;DHT22;48397;53.016;-2.260;2022-09-01T03:37:09;13.00;99.90
44671;DHT22;48397;53.016;-2.260;2022-09-01T03:39:39;13.00;99.90
44671;DHT22;48397;53.016;-2.260;2022-09-01T03:42:07;13.10;99.90
44671;DHT22;48397;53.016;-2.260;2022-09-01T03:44:39;13.10;99.90
44671;DHT22;48397;53.016;-2.260;2022-09-01T03:47:07;13.20;99.90
44671;DHT22;48397;53.016;-2.260;2022-09-01T03:49:43;13.10;99.90
44671;DHT22;48397;53.016;-2.260;2022-09-01T03:52:12;13.10;99.90
44671;DHT22;48397;53.016;-2.260;2022-09-01T03:54:43;13.10;99.90
44671;DHT22;48397;53.016;-2.260;2022-09-01T03:57:12;13.20;99.90
44671;DHT22;48397;53.016;-2.260;2022-09-01T03:59:41;13.20;99.90
44671;DHT22;48397;53.016;-2.260;2022-09-01T04:02:12;13.20;99.90
44671;DHT22;48397;53.016;-2.260;2022-09-01T04:04:42;13.20;99.90
44671;DHT22;48397;53.016;-2.260;2022-09-01T04:07:11;13.20;99.90
44671;DHT22;48397;53.016;-2.260;2022-09-01T04:09:45;13.20;99.90
44671;DHT22;48397;53.016;-2.260;2022-09-01T04:12:14;13.20;99.90
44671;DHT22;48397;53.016;-2.260;2022-09-01T04:14:46;13.20;99.90
44671;DHT22;48397;53.016;-2.260;2022-09-01T04:17:15;13.20;99.90
44671;DHT22;48397;53.016;-2.260;2022-09-01T04:20:02;13.20;99.90
44671;DHT22;48397;53.016;-2.260;2022-09-01T04:22:36;13.20;99.90
44671;DHT22;48397;53.016;-2.260;2022-09-01T04:25:05;13.30;99.90
44671;DHT22;48397;53.016;-2.260;2022-09-01T04:27:34;13.40;99.90
44671;DHT22;48397;53.016;-2.260;2022-09-01T04:30:11;13.50;99.90
44671;DHT22;48397;53.016;-2.260;2022-09-01T04:32:44;13.70;99.90
44671;DHT22;48397;53.016;-2.260;2022-09-01T04:35:15;13.70;99.90
44671;DHT22;48397;53.016;-2.260;2022-09-01T04:37:45;13.80;99.90
44671;DHT22;48397;53.016;-2.260;2022-09-01T04:40:15;13.80;99.90
44671;DHT22;48397;53.016;-2.260;2022-09-01T04:42:46;13.90;99.90
44671;DHT22;48397;53.016;-2.260;2022-09-01T04:45:15;13.90;99.90
44671;DHT22;48397;53.016;-2.260;2022-09-01T04:47:49;14.00;99.90
44671;DHT22;48397;53.016;-2.260;2022-09-01T04:50:18;14.10;99.90
44671;DHT22;48397;53.016;-2.260;2022-09-01T04:53:07;14.10;99.90
44671;DHT22;48397;53.016;-2.260;2022-09-01T04:55:45;14.10;99.90
44671;DHT22;48397;53.016;-2.260;2022-09-01T04:58:19;14.20;99.90
44671;DHT22;48397;53.016;-2.260;2022-09-01T05:00:49;14.20;99.90
44671;DHT22;48397;53.016;-2.260;2022-09-01T05:03:23;14.20;99.90
44671;DHT22;48397;53.016;-2.260;2022-09-01T05:05:54;14.20;99.90
44671;DHT22;48397;53.016;-2.260;2022-09-01T05:08:27;14.10;99.90
44671;DHT22;48397;53.016;-2.260;2022-09-01T05:11:03;14.10;99.90
44671;DHT22;48397;53.016;-2.260;2022-09-01T05:13:47;14.00;99.90
44671;DHT22;48397;53.016;-2.260;2022-09-01T05:16:18;13.90;99.90
44671;DHT22;48397;53.016;-2.260;2022-09-01T05:18:55;13.80;99.90
44671;DHT22;48397;53.016;-2.260;2022-09-01T05:21:31;13.80;99.90
44671;DHT22;48397;53.016;-2.260;2022-09-01T05:23:59;13.70;99.90
44671;DHT22;48397;53.016;-2.260;2022-09-01T05:26:31;13.60;99.90
44671;DHT22;48397;53.016;-2.260;2022-09-01T05:29:04;13.50;99.90
44671;DHT22;48397;53.016;-2.260;2022-09-01T05:31:40;13.50;99.90
44671;DHT22;48397;53.016;-2.260;2022-09-01T05:34:09;13.40;99.90
44671;DHT22;48397;53.016;-2.260;2022-09-01T05:36:44;13.40;99.90
44671;DHT22;48397;53.016;-2.260;2022-09-01T05:39:14;13.30;99.90
44671;DHT22;48397;53.016;-2.260;2022-09-01T05:41:42;13.30;99.90
44671;DHT22;48397;53.016;-2.260;2022-09-01T05:44:11;13.30;99.90
44671;DHT22;48397;53.016;-2.260;2022-09-01T05:46:41;13.40;99.90
44671;DHT22;48397;53.016;-2.260;2022-09-01T05:49:12;13.40;99.90
44671;DHT22;48397;53.016;-2.260;2022-09-01T05:51:49;13.50;99.90
44671;DHT22;48397;53.016;-2.260;2022-09-01T05:54:22;13.60;99.90
44671;DHT22;48397;53.016;-2.260;2022-09-01T05:56:55;13.60;99.90
44671;DHT22;48397;53.016;-2.260;2022-09-01T05:59:45;13.60;99.90
44671;DHT22;48397;53.016;-2.260;2022-09-01T06:02:23;13.70;99.90
44671;DHT22;48397;53.016;-2.260;2022-09-01T06:04:56;13.70;99.90
44671;DHT22;48397;53.016;-2.260;2022-09-01T06:07:31;13.80;99.90
44671;DHT22;48397;53.016;-2.260;2022-09-01T06:10:03;13.80;99.90
44671;DHT22;48397;53.016;-2.260;2022-09-01T06:12:31;14.00;99.90
44671;DHT22;48397;53.016;-2.260;2022-09-01T06:15:01;14.00;99.90
44671;DHT22;48397;53.016;-2.260;2022-09-01T06:17:30;14.10;99.90
44671;DHT22;48397;53.016;-2.260;2022-09-01T06:20:05;14.10;99.90
44671;DHT22;48397;53.016;-2.260;2022-09-01T06:22:41;14.10;99.90
44671;DHT22;48397;53.016;-2.260;2022-09-01T06:25:10;14.20;99.90
44671;DHT22;48397;53.016;-2.260;2022-09-01T06:27:43;14.20;99.90
44671;DHT22;48397;53.016;-2.260;2022-09-01T06:30:17;14.20;99.90
44671;DHT22;48397;53.016;-2.260;2022-09-01T06:33:05;14.20;99.90
44671;DHT22;48397;53.016;-2.260;2022-09-01T06:35:43;14.40;99.90
44671;DHT22;48397;53.016;-2.260;2022-09-01T06:38:15;14.50;99.90
44671;DHT22;48397;53.016;-2.260;2022-09-01T06:40:46;14.50;99.90
44671;DHT22;48397;53.016;-2.260;2022-09-01T06:43:18;14.60;99.90
44671;DHT22;48397;53.016;-2.260;2022-09-01T06:45:50;12.00;99.90
44671;DHT22;48397;53.016;-2.260;2022-09-01T06:48:25;14.70;99.90
44671;DHT22;48397;53.016;-2.260;2022-09-01T06:51:03;14.70;99.90
44671;DHT22;48397;53.016;-2.260;2022-09-01T06:53:55;14.80;99.90
44671;DHT22;48397;53.016;-2.260;2022-09-01T06:56:29;14.80;99.90
44671;DHT22;48397;53.016;-2.260;2022-09-01T06:59:00;14.80;99.90
44671;DHT22;48397;53.016;-2.260;2022-09-01T07:01:35;14.90;99.90
44671;DHT22;48397;53.016;-2.260;2022-09-01T07:04:06;14.90;99.90
44671;DHT22;48397;53.016;-2.260;2022-09-01T07:06:46;15.10;99.90
44671;DHT22;48397;53.016;-2.260;2022-09-01T07:10:03;15.00;99.90
44671;DHT22;48397;53.016;-2.260;2022-09-01T07:13:01;15.10;99.90
44671;DHT22;48397;53.016;-2.260;2022-09-01T07:15:37;15.20;99.90
44671;DHT22;48397;53.016;-2.260;2022-09-01T07:18:28;15.30;99.90
44671;DHT22;48397;53.016;-2.260;2022-09-01T07:20:57;15.30;99.90
44671;DHT22;48397;53.016;-2.260;2022-09-01T07:23:48;15.40;99.90
44671;DHT22;48397;53.016;-2.260;2022-09-01T07:26:38;15.40;99.90
44671;DHT22;48397;53.016;-2.260;2022-09-01T07:29:14;15.50;99.90
44671;DHT22;48397;53.016;-2.260;2022-09-01T07:31:45;15.50;99.90
44671;DHT22;48397;53.016;-2.260;2022-09-01T07:34:17;15.60;99.90
44671;DHT22;48397;53.016;-2.260;2022-09-01T07:37:07;15.70;99.90
44671;DHT22;48397;53.016;-2.260;2022-09-01T07:39:55;15.80;99.90
44671;DHT22;48397;53.016;-2.260;2022-09-01T07:42:41;15.80;99.90
44671;DHT22;48397;53.016;-2.260;2022-09-01T07:45:50;15.80;99.90
44671;DHT22;48397;53.016;-2.260;2022-09-01T07:48:39;16.00;99.90
44671;DHT22;48397;53.016;-2.260;2022-09-01T07:51:28;16.00;99.90
44671;DHT22;48397;53.016;-2.260;2022-09-01T07:54:06;16.10;99.90
44671;DHT22;48397;53.016;-2.260;2022-09-01T07:56:35;16.10;99.90
44671;DHT22;48397;53.016;-2.260;2022-09-01T07:59:09;16.30;99.90
44671;DHT22;48397;53.016;-2.260;2022-09-01T08:01:51;16.40;99.90
44671;DHT22;48397;53.016;-2.260;2022-09-01T08:04:20;16.50;99.90
44671;DHT22;48397;53.016;-2.260;2022-09-01T08:06:52;16.60;99.90
44671;DHT22;48397;53.016;-2.260;2022-09-01T08:09:22;16.60;99.90
44671;DHT22;48397;53.016;-2.260;2022-09-01T08:12:07;16.70;99.90
44671;DHT22;48397;53.016;-2.260;2022-09-01T08:14:44;16.80;99.90
44671;DHT22;48397;53.016;-2.260;2022-09-01T08:17:13;16.90;99.90
44671;DHT22;48397;53.016;-2.260;2022-09-01T08:20:04;18.30;99.90
44671;DHT22;48397;53.016;-2.260;2022-09-01T08:22:56;17.10;99.90
44671;DHT22;48397;53.016;-2.260;2022-09-01T08:25:31;17.20;99.90
44671;DHT22;48397;53.016;-2.260;2022-09-01T08:28:01;17.30;99.90
44671;DHT22;48397;53.016;-2.260;2022-09-01T08:30:30;17.40;99.90
44671;DHT22;48397;53.016;-2.260;2022-09-01T08:33:02;17.40;99.90
44671;DHT22;48397;53.016;-2.260;2022-09-01T08:35:43;16.60;99.90
44671;DHT22;48397;53.016;-2.260;2022-09-01T08:38:12;17.60;99.90
44671;DHT22;48397;53.016;-2.260;2022-09-01T08:40:48;17.60;99.90
44671;DHT22;48397;53.016;-2.260;2022-09-01T08:46:15;17.60;99.90
44671;DHT22;48397;53.016;-2.260;2022-09-01T08:48:54;17.60;99.90
44671;DHT22;48397;53.016;-2.260;2022-09-01T08:57:36;17.70;99.90
44671;DHT22;48397;53.016;-2.260;2022-09-01T09:00:22;17.70;99.90
44671;DHT22;48397;53.016;-2.260;2022-09-01T09:16:55;18.30;99.90
44671;DHT22;48397;53.016;-2.260;2022-09-01T09:19:35;18.40;99.90
44671;DHT22;48397;53.016;-2.260;2022-09-01T09:22:10;18.40;99.90
44671;DHT22;48397;53.016;-2.260;2022-09-01T09:27:30;18.60;99.90
44671;DHT22;48397;53.016;-2.260;2022-09-01T09:30:01;18.60;99.90
44671;DHT22;48397;53.016;-2.260;2022-09-01T09:35:38;18.80;99.90
44671;DHT22;48397;53.016;-2.260;2022-09-01T09:41:01;18.90;99.90
44671;DHT22;48397;53.016;-2.260;2022-09-01T09:43:58;19.00;99.90
44671;DHT22;48397;53.016;-2.260;2022-09-01T09:46:41;19.10;99.90
44671;DHT22;48397;53.016;-2.260;2022-09-01T09:51:41;19.30;99.90
44671;DHT22;48397;53.016;-2.260;2022-09-01T09:56:42;19.50;99.90
44671;DHT22;48397;53.016;-2.260;2022-09-01T09:59:23;19.60;99.90
44671;DHT22;48397;53.016;-2.260;2022-09-01T10:07:53;19.90;99.90
44671;DHT22;48397;53.016;-2.260;2022-09-01T10:10:47;19.90;99.90
44671;DHT22;48397;53.016;-2.260;2022-09-01T10:13:27;19.90;99.90
44671;DHT22;48397;53.016;-2.260;2022-09-01T10:16:01;20.00;99.90
44671;DHT22;48397;53.016;-2.260;2022-09-01T10:18:39;20.00;99.90
44671;DHT22;48397;53.016;-2.260;2022-09-01T10:21:34;20.00;99.90
44671;DHT22;48397;53.016;-2.260;2022-09-01T10:27:02;20.00;99.90
44671;DHT22;48397;53.016;-2.260;2022-09-01T10:29:41;20.00;99.90
44671;DHT22;48397;53.016;-2.260;2022-09-01T10:32:24;20.10;99.90
44671;DHT22;48397;53.016;-2.260;2022-09-01T10:35:07;20.20;99.90
44671;DHT22;48397;53.016;-2.260;2022-09-01T10:37:38;20.30;99.90
44671;DHT22;48397;53.016;-2.260;2022-09-01T10:40:16;20.30;99.90
44671;DHT22;48397;53.016;-2.260;2022-09-01T10:42:49;20.30;99.90
44671;DHT22;48397;53.016;-2.260;2022-09-01T10:45:36;20.30;99.90
44671;DHT22;48397;53.016;-2.260;2022-09-01T10:53:55;20.40;99.90
44671;DHT22;48397;53.016;-2.260;2022-09-01T10:56:42;20.40;99.90
44671;DHT22;48397;53.016;-2.260;2022-09-01T11:02:12;20.40;99.90
44671;DHT22;48397;53.016;-2.260;2022-09-01T11:10:32;20.60;99.90
44671;DHT22;48397;53.016;-2.260;2022-09-01T11:16:27;21.00;99.90
44671;DHT22;48397;53.016;-2.260;2022-09-01T11:33:56;21.50;99.90
44671;DHT22;48397;53.016;-2.260;2022-09-01T11:36:45;21.50;99.90
44671;DHT22;48397;53.016;-2.260;2022-09-01T11:47:20;21.70;99.90
44671;DHT22;48397;53.016;-2.260;2022-09-01T11:49:52;21.80;99.90
44671;DHT22;48397;53.016;-2.260;2022-09-01T11:52:23;21.80;99.90
44671;DHT22;48397;53.016;-2.260;2022-09-01T11:54:53;21.90;99.90
44671;DHT22;48397;53.016;-2.260;2022-09-01T11:59:55;22.20;99.90
44671;DHT22;48397;53.016;-2.260;2022-09-01T12:02:29;22.30;99.90
44671;DHT22;48397;53.016;-2.260;2022-09-01T12:05:26;22.60;99.90
44671;DHT22;48397;53.016;-2.260;2022-09-01T12:07:54;22.60;99.90
44671;DHT22;48397;53.016;-2.260;2022-09-01T12:15:41;23.50;99.90
44671;DHT22;48397;53.016;-2.260;2022-09-01T12:18:32;23.10;99.90
44671;DHT22;48397;53.016;-2.260;2022-09-01T12:21:04;23.90;99.90
44671;DHT22;48397;53.016;-2.260;2022-09-01T12:23:37;23.90;99.90
44671;DHT22;48397;53.016;-2.260;2022-09-01T12:26:13;24.00;99.90
44671;DHT22;48397;53.016;-2.260;2022-09-01T12:28:41;24.20;99.90
44671;DHT22;48397;53.016;-2.260;2022-09-01T12:31:15;24.40;99.90
44671;DHT22;48397;53.016;-2.260;2022-09-01T12:33:45;24.60;99.90
44671;DHT22;48397;53.016;-2.260;2022-09-01T12:36:32;24.70;99.90
44671;DHT22;48397;53.016;-2.260;2022-09-01T12:39:21;24.80;99.90
44671;DHT22;48397;53.016;-2.260;2022-09-01T12:44:41;25.00;99.10
44671;DHT22;48397;53.016;-2.260;2022-09-01T12:47:11;25.10;99.40
44671;DHT22;48397;53.016;-2.260;2022-09-01T12:57:30;26.10;95.90
44671;DHT22;48397;53.016;-2.260;2022-09-01T13:02:38;26.10;94.50
44671;DHT22;48397;53.016;-2.260;2022-09-01T13:05:27;26.10;93.80
44671;DHT22;48397;53.016;-2.260;2022-09-01T13:08:02;25.90;93.80
44671;DHT22;48397;53.016;-2.260;2022-09-01T13:10:41;25.80;94.20
44671;DHT22;48397;53.016;-2.260;2022-09-01T13:13:10;25.90;93.80
44671;DHT22;48397;53.016;-2.260;2022-09-01T13:15:41;25.90;93.00
44671;DHT22;48397;53.016;-2.260;2022-09-01T13:18:09;25.80;93.60
44671;DHT22;48397;53.016;-2.260;2022-09-01T13:20:37;26.00;93.80
44671;DHT22;48397;53.016;-2.260;2022-09-01T13:23:05;26.30;93.90
44671;DHT22;48397;53.016;-2.260;2022-09-01T13:25:33;26.60;93.60
44671;DHT22;48397;53.016;-2.260;2022-09-01T13:28:02;26.80;93.10
44671;DHT22;48397;53.016;-2.260;2022-09-01T13:30:30;26.90;92.20
44671;DHT22;48397;53.016;-2.260;2022-09-01T13:32:58;26.90;91.60
44671;DHT22;48397;53.016;-2.260;2022-09-01T13:35:46;26.70;92.10
44671;DHT22;48397;53.016;-2.260;2022-09-01T13:38:15;26.60;92.00
44671;DHT22;48397;53.016;-2.260;2022-09-01T13:40:44;26.70;92.30
44671;DHT22;48397;53.016;-2.260;2022-09-01T13:43:14;26.90;91.90
44671;DHT22;48397;53.016;-2.260;2022-09-01T13:45:42;27.30;91.90
44671;DHT22;48397;53.016;-2.260;2022-09-01T13:48:13;27.40;91.70
44671;DHT22;48397;53.016;-2.260;2022-09-01T13:50:45;27.30;90.40
44671;DHT22;48397;53.016;-2.260;2022-09-01T13:53:33;26.40;90.40
44671;DHT22;48397;53.016;-2.260;2022-09-01T13:56:01;26.40;90.60
44671;DHT22;48397;53.016;-2.260;2022-09-01T13:58:28;26.60;90.70
44671;DHT22;48397;53.016;-2.260;2022-09-01T14:00:56;26.70;90.40
44671;DHT22;48397;53.016;-2.260;2022-09-01T14:03:26;26.90;90.50
44671;DHT22;48397;53.016;-2.260;2022-09-01T14:05:54;27.30;90.10
44671;DHT22;48397;53.016;-2.260;2022-09-01T14:08:22;27.60;89.20
44671;DHT22;48397;53.016;-2.260;2022-09-01T14:10:52;27.60;88.00
44671;DHT22;48397;53.016;-2.260;2022-09-01T14:13:21;27.60;87.70
44671;DHT22;48397;53.016;-2.260;2022-09-01T14:15:49;27.90;87.70
44671;DHT22;48397;53.016;-2.260;2022-09-01T14:18:19;28.10;86.60
44671;DHT22;48397;53.016;-2.260;2022-09-01T14:20:50;28.20;85.80
44671;DHT22;48397;53.016;-2.260;2022-09-01T14:23:18;28.50;85.90
44671;DHT22;48397;53.016;-2.260;2022-09-01T14:25:48;28.90;84.70
44671;DHT22;48397;53.016;-2.260;2022-09-01T14:28:18;29.20;82.20
44671;DHT22;48397;53.016;-2.260;2022-09-01T14:30:48;29.30;82.20
44671;DHT22;48397;53.016;-2.260;2022-09-01T14:33:17;29.30;80.90
44671;DHT22;48397;53.016;-2.260;2022-09-01T14:35:46;29.30;80.40
44671;DHT22;48397;53.016;-2.260;2022-09-01T14:38:14;29.40;78.90
44671;DHT22;48397;53.016;-2.260;2022-09-01T14:40:45;29.60;79.00
44671;DHT22;48397;53.016;-2.260;2022-09-01T14:43:14;29.90;78.60
44671;DHT22;48397;53.016;-2.260;2022-09-01T14:45:42;30.10;77.90
44671;DHT22;48397;53.016;-2.260;2022-09-01T14:48:15;30.00;75.70
44671;DHT22;48397;53.016;-2.260;2022-09-01T14:50:46;30.00;76.10
44671;DHT22;48397;53.016;-2.260;2022-09-01T14:53:15;30.10;76.20
44671;DHT22;48397;53.016;-2.260;2022-09-01T14:55:43;30.30;76.60
44671;DHT22;48397;53.016;-2.260;2022-09-01T14:58:10;30.60;75.90
44671;DHT22;48397;53.016;-2.260;2022-09-01T15:00:38;30.70;74.30
44671;DHT22;48397;53.016;-2.260;2022-09-01T15:03:09;30.60;73.10
44671;DHT22;48397;53.016;-2.260;2022-09-01T15:05:37;30.30;73.10
44671;DHT22;48397;53.016;-2.260;2022-09-01T15:08:07;30.00;73.40
44671;DHT22;48397;53.016;-2.260;2022-09-01T15:10:40;29.70;73.90
44671;DHT22;48397;53.016;-2.260;2022-09-01T15:13:08;29.90;73.90
44671;DHT22;48397;53.016;-2.260;2022-09-01T15:15:37;30.20;72.90
44671;DHT22;48397;53.016;-2.260;2022-09-01T15:18:05;30.30;73.40
44671;DHT22;48397;53.016;-2.260;2022-09-01T15:20:32;30.20;72.90
44671;DHT22;48397;53.016;-2.260;2022-09-01T15:23:20;30.40;72.90
44671;DHT22;48397;53.016;-2.260;2022-09-01T15:25:51;30.70;71.80
44671;DHT22;48397;53.016;-2.260;2022-09-01T15:28:20;31.00;71.60
44671;DHT22;48397;53.016;-2.260;2022-09-01T15:30:50;31.50;71.80
44671;DHT22;48397;53.016;-2.260;2022-09-01T15:33:20;31.80;70.40
44671;DHT22;48397;53.016;-2.260;2022-09-01T15:35:48;31.50;70.20
44671;DHT22;48397;53.016;-2.260;2022-09-01T15:38:16;31.40;69.80
44671;DHT22;48397;53.016;-2.260;2022-09-01T15:40:45;31.30;69.40
44671;DHT22;48397;53.016;-2.260;2022-09-01T15:43:24;31.00;68.70
44671;DHT22;48397;53.016;-2.260;2022-09-01T15:45:52;30.40;69.20
44671;DHT22;48397;53.016;-2.260;2022-09-01T15:48:20;30.20;70.40
44671;DHT22;48397;53.016;-2.260;2022-09-01T15:50:48;30.40;70.40
44671;DHT22;48397;53.016;-2.260;2022-09-01T15:53:16;30.50;70.00
44671;DHT22;48397;53.016;-2.260;2022-09-01T15:55:47;30.70;70.50
44671;DHT22;48397;53.016;-2.260;2022-09-01T15:58:17;30.70;69.10
44671;DHT22;48397;53.016;-2.260;2022-09-01T16:00:45;30.20;68.50
44671;DHT22;48397;53.016;-2.260;2022-09-01T16:03:13;29.90;69.60
44671;DHT22;48397;53.016;-2.260;2022-09-01T16:05:41;30.10;69.40
44671;DHT22;48397;53.016;-2.260;2022-09-01T16:08:09;30.40;69.80
44671;DHT22;48397;53.016;-2.260;2022-09-01T16:10:39;30.90;69.80
44671;DHT22;48397;53.016;-2.260;2022-09-01T16:13:08;31.30;69.20
44671;DHT22;48397;53.016;-2.260;2022-09-01T16:15:45;31.60;68.40
44671;DHT22;48397;53.016;-2.260;2022-09-01T16:23:41;31.20;68.80
44671;DHT22;48397;53.016;-2.260;2022-09-01T16:26:09;30.90;69.10
44671;DHT22;48397;53.016;-2.260;2022-09-01T16:28:38;30.00;69.30
44671;DHT22;48397;53.016;-2.260;2022-09-01T16:31:24;29.10;70.60
44671;DHT22;48397;53.016;-2.260;2022-09-01T16:33:54;28.50;71.50
44671;DHT22;48397;53.016;-2.260;2022-09-01T16:45:04;25.10;75.90
44671;DHT22;48397;53.016;-2.260;2022-09-01T16:53:21;25.70;76.40
44671;DHT22;48397;53.016;-2.260;2022-09-01T16:56:00;25.70;76.30
44671;DHT22;48397;53.016;-2.260;2022-09-01T17:09:44;25.50;78.40
44671;DHT22;48397;53.016;-2.260;2022-09-01T17:14:57;26.30;78.90
44671;DHT22;48397;53.016;-2.260;2022-09-01T17:17:57;26.60;78.10
44671;DHT22;48397;53.016;-2.260;2022-09-01T17:20:34;26.90;77.80
44671;DHT22;48397;53.016;-2.260;2022-09-01T17:23:03;27.10;77.80
44671;DHT22;48397;53.016;-2.260;2022-09-01T17:25:40;27.40;76.60
44671;DHT22;48397;53.016;-2.260;2022-09-01T17:28:14;27.40;76.90
44671;DHT22;48397;53.016;-2.260;2022-09-01T17:30:59;27.30;76.40
44671;DHT22;48397;53.016;-2.260;2022-09-01T17:39:44;26.20;77.60
44671;DHT22;48397;53.016;-2.260;2022-09-01T17:42:32;26.10;78.20
44671;DHT22;48397;53.016;-2.260;2022-09-01T17:45:25;26.00;79.20
44671;DHT22;48397;53.016;-2.260;2022-09-01T17:48:08;25.90;79.10
44671;DHT22;48397;53.016;-2.260;2022-09-01T17:51:14;25.60;79.50
44671;DHT22;48397;53.016;-2.260;2022-09-01T17:59:22;25.30;79.80
44671;DHT22;48397;53.016;-2.260;2022-09-01T18:10:32;25.10;79.30
44671;DHT22;48397;53.016;-2.260;2022-09-01T18:13:04;24.60;79.50
44671;DHT22;48397;53.016;-2.260;2022-09-01T18:15:44;23.50;80.70
44671;DHT22;48397;53.016;-2.260;2022-09-01T18:21:08;22.50;81.90
44671;DHT22;48397;53.016;-2.260;2022-09-01T18:23:41;22.20;82.40
44671;DHT22;48397;53.016;-2.260;2022-09-01T18:26:25;21.80;83.00
44671;DHT22;48397;53.016;-2.260;2022-09-01T18:28:56;21.50;84.10
44671;DHT22;48397;53.016;-2.260;2022-09-01T18:40:03;20.80;85.40
44671;DHT22;48397;53.016;-2.260;2022-09-01T18:42:58;20.70;86.10
44671;DHT22;48397;53.016;-2.260;2022-09-01T18:53:56;20.00;88.90
44671;DHT22;48397;53.016;-2.260;2022-09-01T18:56:44;20.40;89.80
44671;DHT22;48397;53.016;-2.260;2022-09-01T18:59:48;19.70;90.60
44671;DHT22;48397;53.016;-2.260;2022-09-01T19:05:00;19.40;91.60
44671;DHT22;48397;53.016;-2.260;2022-09-01T19:10:28;19.20;92.70
44671;DHT22;48397;53.016;-2.260;2022-09-01T19:13:21;19.10;93.40